createdAt,value
2018-09-16T00:00:22.443Z,0.00
2018-09-16T00:01:22.430Z,0.00
2018-09-16T00:02:22.394Z,0.00
2018-09-16T00:03:22.375Z,0.00
2018-09-16T00:04:22.361Z,0.00
2018-09-16T00:05:22.355Z,0.00
2018-09-16T00:06:22.340Z,0.00
2018-09-16T00:07:22.311Z,0.00
2018-09-16T00:08:22.294Z,0.00
2018-09-16T00:09:22.277Z,0.00
2018-09-16T00:10:22.260Z,0.00
2018-09-16T00:11:22.253Z,0.00
2018-09-16T00:12:22.227Z,0.00
2018-09-16T00:13:22.206Z,0.00
2018-09-16T00:14:22.192Z,0.00
2018-09-16T00:15:22.189Z,0.00
2018-09-16T00:16:22.184Z,0.00
2018-09-16T00:17:22.141Z,0.00
2018-09-16T00:18:22.126Z,0.00
2018-09-16T00:19:22.110Z,0.00
2018-09-16T00:20:22.094Z,0.00
2018-09-16T00:21:22.078Z,0.00
2018-09-16T00:22:22.072Z,0.00
2018-09-16T00:23:22.056Z,0.00
2018-09-16T00:24:22.029Z,0.00
2018-09-16T00:25:22.011Z,0.00
2018-09-16T00:26:21.992Z,0.00
2018-09-16T00:27:21.992Z,0.00
2018-09-16T00:28:21.960Z,0.00
2018-09-16T00:29:21.943Z,0.00
2018-09-16T00:30:21.927Z,0.00
2018-09-16T00:31:21.912Z,0.00
2018-09-16T00:32:21.905Z,0.00
2018-09-16T00:33:21.875Z,0.00
2018-09-16T00:34:21.858Z,0.00
2018-09-16T00:35:21.844Z,0.00
2018-09-16T00:36:21.827Z,0.00
2018-09-16T00:37:21.828Z,0.00
2018-09-16T00:38:21.806Z,0.00
2018-09-16T00:39:21.776Z,0.00
2018-09-16T00:40:21.763Z,0.00
2018-09-16T00:41:21.743Z,0.00
2018-09-16T00:42:21.728Z,0.00
2018-09-16T00:43:21.725Z,0.00
2018-09-16T00:44:21.697Z,0.00
2018-09-16T00:45:21.678Z,0.00
2018-09-16T00:46:21.678Z,0.00
2018-09-16T00:47:21.643Z,0.00
2018-09-16T00:48:21.641Z,0.00
2018-09-16T00:49:21.608Z,0.00
2018-09-16T00:50:21.592Z,0.00
2018-09-16T00:51:21.572Z,0.00
2018-09-16T00:52:21.560Z,0.00
2018-09-16T00:53:21.557Z,0.00
2018-09-16T00:54:21.527Z,0.00
2018-09-16T00:55:21.509Z,0.00
2018-09-16T00:56:21.497Z,0.00
2018-09-16T00:57:21.472Z,0.00
2018-09-16T00:58:21.458Z,0.00
2018-09-16T00:59:21.459Z,0.00
2018-09-16T01:00:21.427Z,0.00
2018-09-16T01:01:21.427Z,0.00
2018-09-16T01:02:21.393Z,0.00
2018-09-16T01:03:21.376Z,0.00
2018-09-16T01:04:21.359Z,0.00
2018-09-16T01:05:21.359Z,0.00
2018-09-16T01:06:21.324Z,0.00
2018-09-16T01:07:21.309Z,0.00
2018-09-16T01:08:21.292Z,0.00
2018-09-16T01:09:21.291Z,0.00
2018-09-16T01:10:21.260Z,0.00
2018-09-16T01:11:21.256Z,0.00
2018-09-16T01:12:21.225Z,0.00
2018-09-16T01:13:21.209Z,0.00
2018-09-16T01:14:21.190Z,0.00
2018-09-16T01:15:21.177Z,0.00
2018-09-16T01:16:21.160Z,0.00
2018-09-16T01:17:21.167Z,0.00
2018-09-16T01:18:21.126Z,0.00
2018-09-16T01:19:21.106Z,0.00
2018-09-16T01:20:21.091Z,0.00
2018-09-16T01:21:21.075Z,0.00
2018-09-16T01:22:21.056Z,0.00
2018-09-16T01:23:21.059Z,0.00
2018-09-16T01:24:21.024Z,0.00
2018-09-16T01:25:21.012Z,0.00
2018-09-16T01:26:20.995Z,0.00
2018-09-16T01:27:20.988Z,0.00
2018-09-16T01:28:20.959Z,0.00
2018-09-16T01:29:20.938Z,0.00
2018-09-16T01:30:20.920Z,0.00
2018-09-16T01:31:20.905Z,0.00
2018-09-16T01:32:20.888Z,0.00
2018-09-16T01:33:20.889Z,0.00
2018-09-16T01:34:20.852Z,0.00
2018-09-16T01:35:20.835Z,0.00
2018-09-16T01:36:20.837Z,0.00
2018-09-16T01:37:20.805Z,0.00
2018-09-16T01:38:20.788Z,0.00
2018-09-16T01:39:20.775Z,0.00
2018-09-16T01:40:20.752Z,0.00
2018-09-16T01:41:20.749Z,0.00
2018-09-16T01:42:20.719Z,0.00
2018-09-16T01:43:20.706Z,0.00
2018-09-16T01:44:20.701Z,0.00
2018-09-16T01:45:20.676Z,0.00
2018-09-16T01:46:20.653Z,0.00
2018-09-16T01:47:20.637Z,0.00
2018-09-16T01:48:20.625Z,0.00
2018-09-16T01:49:20.622Z,0.00
2018-09-16T01:50:20.586Z,0.00
2018-09-16T01:51:20.570Z,0.00
2018-09-16T01:52:20.555Z,0.00
2018-09-16T01:53:20.538Z,0.00
2018-09-16T01:54:20.541Z,0.00
2018-09-16T01:55:20.501Z,0.00
2018-09-16T01:56:20.484Z,0.00
2018-09-16T01:57:20.469Z,0.00
2018-09-16T01:58:20.455Z,0.00
2018-09-16T01:59:20.434Z,0.00
2018-09-16T02:00:20.437Z,0.00
2018-09-16T02:01:20.402Z,0.00
2018-09-16T02:02:20.382Z,0.00
2018-09-16T02:03:20.369Z,0.00
2018-09-16T02:04:20.370Z,0.00
2018-09-16T02:05:20.331Z,0.00
2018-09-16T02:06:20.324Z,0.00
2018-09-16T02:07:20.319Z,0.00
2018-09-16T02:08:20.284Z,0.00
2018-09-16T02:09:20.266Z,0.00
2018-09-16T02:10:20.250Z,0.00
2018-09-16T02:11:20.232Z,0.00
2018-09-16T02:12:20.232Z,0.00
2018-09-16T02:13:20.203Z,0.00
2018-09-16T02:14:20.180Z,0.00
2018-09-16T02:15:20.164Z,0.00
2018-09-16T02:16:20.149Z,0.00
2018-09-16T02:17:20.146Z,0.00
2018-09-16T02:18:20.117Z,0.00
2018-09-16T02:19:20.100Z,0.00
2018-09-16T02:20:20.099Z,0.00
2018-09-16T02:21:20.079Z,0.00
2018-09-16T02:22:20.045Z,0.00
2018-09-16T02:23:20.026Z,0.00
2018-09-16T02:24:20.010Z,0.00
2018-09-16T02:25:19.999Z,0.00
2018-09-16T02:26:19.993Z,0.00
2018-09-16T02:27:19.961Z,0.00
2018-09-16T02:28:19.946Z,0.00
2018-09-16T02:29:19.927Z,0.00
2018-09-16T02:30:19.908Z,0.00
2018-09-16T02:31:19.907Z,0.00
2018-09-16T02:32:19.883Z,0.00
2018-09-16T02:33:19.865Z,0.00
2018-09-16T02:34:19.844Z,0.00
2018-09-16T02:35:19.827Z,0.00
2018-09-16T02:36:19.823Z,0.00
2018-09-16T02:37:19.796Z,0.00
2018-09-16T02:38:19.781Z,0.00
2018-09-16T02:39:19.758Z,0.00
2018-09-16T02:40:19.741Z,0.00
2018-09-16T02:41:19.741Z,0.00
2018-09-16T02:42:19.705Z,0.00
2018-09-16T02:43:19.748Z,0.00
2018-09-16T02:44:19.673Z,0.00
2018-09-16T02:45:19.657Z,0.00
2018-09-16T02:46:19.642Z,0.00
2018-09-16T02:47:19.638Z,0.00
2018-09-16T02:48:19.623Z,0.00
2018-09-16T02:49:19.587Z,0.00
2018-09-16T02:50:19.571Z,0.00
2018-09-16T02:51:19.559Z,0.00
2018-09-16T02:52:19.552Z,0.00
2018-09-16T02:53:19.520Z,0.00
2018-09-16T02:54:19.508Z,0.00
2018-09-16T02:55:19.497Z,0.00
2018-09-16T02:56:19.469Z,0.00
2018-09-16T02:57:19.455Z,0.00
2018-09-16T02:58:19.431Z,0.00
2018-09-16T02:59:19.421Z,0.00
2018-09-16T03:00:19.413Z,0.00
2018-09-16T03:01:19.384Z,0.00
2018-09-16T03:02:19.366Z,0.00
2018-09-16T03:03:40.452Z,0.00
2018-09-16T03:04:19.334Z,0.00
2018-09-16T03:05:19.313Z,0.00
2018-09-16T03:06:19.300Z,0.00
2018-09-16T03:07:19.281Z,0.00
2018-09-16T03:08:19.281Z,0.00
2018-09-16T03:09:19.251Z,0.00
2018-09-16T03:10:19.230Z,0.00
2018-09-16T03:11:19.260Z,0.00
2018-09-16T03:12:19.196Z,0.00
2018-09-16T03:13:19.177Z,0.00
2018-09-16T03:14:19.182Z,0.00
2018-09-16T03:15:19.147Z,0.00
2018-09-16T03:16:19.127Z,0.00
2018-09-16T03:17:19.111Z,0.00
2018-09-16T03:18:19.088Z,0.00
2018-09-16T03:19:19.072Z,0.00
2018-09-16T03:20:19.073Z,0.00
2018-09-16T03:21:19.045Z,0.00
2018-09-16T03:22:19.023Z,0.00
2018-09-16T03:23:19.007Z,0.00
2018-09-16T03:24:18.989Z,0.00
2018-09-16T03:25:18.993Z,0.00
2018-09-16T03:26:18.953Z,0.00
2018-09-16T03:27:18.936Z,0.00
2018-09-16T03:28:18.921Z,0.00
2018-09-16T03:29:18.905Z,0.00
2018-09-16T03:30:18.885Z,0.00
2018-09-16T03:31:18.887Z,0.00
2018-09-16T03:32:18.853Z,0.00
2018-09-16T03:33:18.834Z,0.00
2018-09-16T03:34:18.817Z,0.00
2018-09-16T03:35:18.798Z,0.00
2018-09-16T03:36:18.798Z,0.00
2018-09-16T03:37:18.767Z,0.00
2018-09-16T03:38:18.748Z,0.00
2018-09-16T03:39:18.738Z,0.00
2018-09-16T03:40:18.715Z,0.00
2018-09-16T03:41:18.693Z,0.00
2018-09-16T03:42:18.694Z,0.00
2018-09-16T03:43:18.662Z,0.00
2018-09-16T03:44:18.651Z,0.00
2018-09-16T03:45:18.626Z,0.00
2018-09-16T03:46:18.612Z,0.00
2018-09-16T03:47:18.608Z,0.00
2018-09-16T03:48:18.585Z,0.00
2018-09-16T03:49:18.559Z,0.00
2018-09-16T03:50:18.540Z,0.00
2018-09-16T03:51:18.524Z,0.00
2018-09-16T03:52:18.518Z,0.00
2018-09-16T03:53:18.494Z,0.00
2018-09-16T03:54:18.471Z,0.00
2018-09-16T03:55:18.454Z,0.00
2018-09-16T03:56:18.452Z,0.00
2018-09-16T03:57:18.423Z,0.00
2018-09-16T03:58:18.402Z,0.00
2018-09-16T03:59:18.387Z,0.00
2018-09-16T04:00:18.384Z,0.00
2018-09-16T04:01:18.349Z,0.00
2018-09-16T04:02:18.350Z,0.00
2018-09-16T04:03:18.334Z,0.00
2018-09-16T04:05:00.532Z,0.00
2018-09-16T04:07:34.788Z,0.00
2018-09-16T04:10:05.566Z,0.00
2018-09-16T04:10:34.380Z,0.00
2018-09-16T04:11:26.593Z,0.00
2018-09-16T04:12:18.179Z,0.00
2018-09-16T04:13:18.154Z,0.00
2018-09-16T04:14:18.144Z,0.00
2018-09-16T04:15:18.116Z,0.00
2018-09-16T04:16:18.097Z,0.00
2018-09-16T04:17:18.078Z,0.00
2018-09-16T04:20:18.030Z,0.00
2018-09-16T04:21:18.025Z,0.00
2018-09-16T04:22:17.992Z,0.00
2018-09-16T04:23:17.973Z,0.00
2018-09-16T04:24:17.954Z,0.00
2018-09-16T04:25:17.947Z,0.00
2018-09-16T04:26:17.940Z,0.00
2018-09-16T04:27:17.906Z,0.00
2018-09-16T04:28:17.893Z,0.00
2018-09-16T04:29:17.869Z,0.00
2018-09-16T04:30:22.971Z,0.00
2018-09-16T04:31:25.371Z,0.00
2018-09-16T04:32:17.818Z,0.00
2018-09-16T04:33:17.851Z,0.00
2018-09-16T04:34:17.783Z,0.00
2018-09-16T04:35:17.767Z,0.00
2018-09-16T04:36:19.608Z,0.00
2018-09-16T04:37:17.749Z,0.00
2018-09-16T04:38:17.714Z,0.00
2018-09-16T04:39:17.699Z,0.00
2018-09-16T04:40:17.679Z,0.00
2018-09-16T04:41:17.660Z,0.00
2018-09-16T04:42:17.654Z,0.00
2018-09-16T04:43:17.624Z,0.00
2018-09-16T04:44:17.608Z,0.00
2018-09-16T04:45:17.608Z,0.00
2018-09-16T04:46:17.570Z,0.00
2018-09-16T04:47:17.573Z,0.00
2018-09-16T04:48:17.554Z,0.00
2018-09-16T04:49:17.522Z,0.00
2018-09-16T04:50:17.500Z,0.00
2018-09-16T04:51:17.484Z,0.00
2018-09-16T04:52:17.466Z,0.00
2018-09-16T04:53:17.463Z,0.00
2018-09-16T04:54:17.432Z,0.00
2018-09-16T04:55:17.415Z,0.00
2018-09-16T04:56:17.397Z,0.00
2018-09-16T04:57:17.397Z,0.00
2018-09-16T04:58:17.362Z,0.00
2018-09-16T04:59:17.348Z,0.00
2018-09-16T05:00:17.332Z,0.00
2018-09-16T05:01:17.314Z,0.00
2018-09-16T05:02:17.309Z,0.00
2018-09-16T05:03:17.276Z,0.00
2018-09-16T05:04:17.266Z,0.00
2018-09-16T05:05:17.240Z,0.00
2018-09-16T05:06:17.224Z,0.00
2018-09-16T05:07:17.225Z,0.00
2018-09-16T05:08:17.189Z,0.00
2018-09-16T05:09:17.174Z,0.00
2018-09-16T05:10:17.154Z,0.00
2018-09-16T05:11:17.135Z,0.00
2018-09-16T05:12:17.119Z,0.00
2018-09-16T05:13:17.116Z,0.00
2018-09-16T05:14:17.083Z,0.00
2018-09-16T05:15:17.067Z,0.00
2018-09-16T05:16:17.048Z,0.00
2018-09-16T05:17:17.045Z,0.00
2018-09-16T05:18:17.032Z,0.00
2018-09-16T05:19:16.996Z,0.00
2018-09-16T05:20:16.981Z,5.63
2018-09-16T05:21:16.959Z,5.63
2018-09-16T05:22:16.955Z,5.63
2018-09-16T05:23:16.928Z,5.63
2018-09-16T05:24:16.911Z,5.63
2018-09-16T05:25:16.892Z,5.63
2018-09-16T05:26:16.873Z,5.63
2018-09-16T05:27:16.869Z,5.63
2018-09-16T05:28:16.838Z,5.63
2018-09-16T05:29:16.822Z,5.63
2018-09-16T05:30:16.802Z,11.25
2018-09-16T05:31:16.824Z,11.25
2018-09-16T05:32:16.771Z,11.25
2018-09-16T05:33:16.765Z,11.25
2018-09-16T05:34:16.738Z,11.25
2018-09-16T05:35:16.718Z,11.25
2018-09-16T05:36:16.698Z,16.88
2018-09-16T05:37:16.684Z,16.88
2018-09-16T05:38:16.687Z,16.88
2018-09-16T05:39:16.647Z,16.88
2018-09-16T05:40:16.631Z,16.88
2018-09-16T05:41:16.610Z,16.88
2018-09-16T05:42:16.593Z,16.88
2018-09-16T05:43:16.879Z,16.88
2018-09-16T05:44:16.578Z,16.88
2018-09-16T05:45:16.542Z,22.50
2018-09-16T05:46:16.526Z,22.50
2018-09-16T05:47:16.507Z,22.50
2018-09-16T05:48:16.490Z,22.50
2018-09-16T05:49:16.487Z,22.50
2018-09-16T05:50:16.455Z,22.50
2018-09-16T05:51:16.439Z,22.50
2018-09-16T05:52:16.420Z,22.50
2018-09-16T05:53:16.552Z,22.50
2018-09-16T05:54:16.385Z,22.50
2018-09-16T05:55:16.369Z,22.50
2018-09-16T05:56:16.351Z,22.50
2018-09-16T05:57:16.334Z,22.50
2018-09-16T05:58:16.318Z,22.50
2018-09-16T05:59:16.375Z,22.50
2018-09-16T06:00:16.294Z,22.50
2018-09-16T06:01:16.267Z,22.50
2018-09-16T06:02:16.245Z,22.50
2018-09-16T06:03:16.228Z,22.50
2018-09-16T06:04:16.212Z,22.50
2018-09-16T06:05:16.204Z,22.50
2018-09-16T06:06:16.175Z,22.50
2018-09-16T06:07:16.159Z,22.50
2018-09-16T06:08:16.142Z,22.50
2018-09-16T06:09:16.124Z,22.50
2018-09-16T06:10:16.120Z,22.50
2018-09-16T06:11:16.086Z,22.50
2018-09-16T06:12:16.072Z,22.50
2018-09-16T06:13:16.055Z,22.50
2018-09-16T06:14:16.037Z,22.50
2018-09-16T06:15:16.022Z,22.50
2018-09-16T06:16:16.013Z,22.50
2018-09-16T06:17:15.983Z,22.50
2018-09-16T06:18:15.968Z,22.50
2018-09-16T06:19:15.950Z,22.50
2018-09-16T06:20:15.951Z,22.50
2018-09-16T06:21:15.926Z,22.50
2018-09-16T06:22:15.896Z,22.50
2018-09-16T06:23:15.880Z,22.50
2018-09-16T06:24:15.867Z,22.50
2018-09-16T06:25:15.849Z,22.50
2018-09-16T06:26:15.858Z,22.50
2018-09-16T06:27:15.848Z,22.50
2018-09-16T06:28:15.794Z,22.50
2018-09-16T06:29:15.778Z,22.50
2018-09-16T06:30:15.759Z,28.13
2018-09-16T06:31:15.749Z,28.13
2018-09-16T06:32:15.740Z,28.13
2018-09-16T06:33:15.709Z,28.13
2018-09-16T06:34:15.693Z,28.13
2018-09-16T06:35:15.674Z,28.13
2018-09-16T06:36:15.673Z,33.75
2018-09-16T06:37:15.641Z,33.75
2018-09-16T06:38:15.632Z,33.75
2018-09-16T06:39:15.607Z,33.75
2018-09-16T06:40:15.588Z,33.75
2018-09-16T06:41:15.577Z,33.75
2018-09-16T06:42:15.572Z,33.75
2018-09-16T06:43:15.536Z,33.75
2018-09-16T06:44:15.524Z,33.75
2018-09-16T06:45:15.508Z,33.75
2018-09-16T06:46:15.484Z,33.75
2018-09-16T06:47:15.484Z,33.75
2018-09-16T06:48:15.452Z,39.38
2018-09-16T06:49:15.433Z,39.38
2018-09-16T06:50:15.417Z,39.38
2018-09-16T06:51:15.398Z,39.38
2018-09-16T06:52:15.397Z,39.38
2018-09-16T06:53:15.366Z,39.38
2018-09-16T06:54:15.350Z,39.38
2018-09-16T06:55:15.331Z,39.38
2018-09-16T06:56:15.312Z,39.38
2018-09-16T06:57:15.318Z,39.38
2018-09-16T06:58:15.281Z,45.00
2018-09-16T06:59:15.262Z,45.00
2018-09-16T07:00:15.245Z,50.63
2018-09-16T07:01:15.227Z,50.63
2018-09-16T07:02:15.208Z,50.63
2018-09-16T07:03:15.207Z,50.63
2018-09-16T07:04:15.176Z,50.63
2018-09-16T07:05:15.162Z,50.63
2018-09-16T07:06:15.144Z,45.00
2018-09-16T07:07:15.137Z,45.00
2018-09-16T07:08:15.154Z,45.00
2018-09-16T07:09:15.093Z,45.00
2018-09-16T07:10:15.077Z,45.00
2018-09-16T07:11:15.059Z,45.00
2018-09-16T07:12:15.043Z,45.00
2018-09-16T07:13:15.027Z,45.00
2018-09-16T07:14:15.028Z,45.00
2018-09-16T07:15:14.992Z,45.00
2018-09-16T07:16:14.977Z,45.00
2018-09-16T07:17:14.965Z,45.00
2018-09-16T07:18:14.946Z,50.63
2018-09-16T07:19:14.930Z,50.63
2018-09-16T07:20:14.962Z,50.63
2018-09-16T07:21:14.894Z,50.63
2018-09-16T07:22:14.875Z,50.63
2018-09-16T07:23:14.866Z,50.63
2018-09-16T07:24:14.860Z,50.63
2018-09-16T07:25:14.828Z,50.63
2018-09-16T07:26:14.809Z,50.63
2018-09-16T07:27:14.836Z,50.63
2018-09-16T07:28:14.776Z,50.63
2018-09-16T07:29:14.779Z,50.63
2018-09-16T07:30:14.745Z,50.63
2018-09-16T07:31:14.729Z,50.63
2018-09-16T07:32:14.722Z,45.00
2018-09-16T07:33:14.697Z,45.00
2018-09-16T07:34:14.865Z,45.00
2018-09-16T07:35:14.677Z,45.00
2018-09-16T07:36:14.665Z,45.00
2018-09-16T07:37:14.629Z,50.63
2018-09-16T07:38:14.611Z,50.63
2018-09-16T07:39:14.594Z,50.63
2018-09-16T07:40:14.578Z,50.63
2018-09-16T07:41:14.560Z,50.63
2018-09-16T07:42:14.565Z,50.63
2018-09-16T07:43:14.529Z,50.63
2018-09-16T07:44:14.513Z,50.63
2018-09-16T07:45:14.502Z,56.25
2018-09-16T07:46:14.486Z,56.25
2018-09-16T07:47:14.482Z,56.25
2018-09-16T07:48:14.444Z,56.25
2018-09-16T07:49:14.429Z,61.88
2018-09-16T07:50:14.420Z,61.88
2018-09-16T07:51:14.399Z,61.88
2018-09-16T07:52:14.412Z,61.88
2018-09-16T07:53:14.380Z,61.88
2018-09-16T07:54:14.348Z,61.88
2018-09-16T07:55:14.335Z,56.25
2018-09-16T07:56:14.319Z,56.25
2018-09-16T07:57:14.302Z,56.25
2018-09-16T07:58:14.299Z,61.88
2018-09-16T07:59:14.264Z,61.88
2018-09-16T08:00:14.254Z,61.88
2018-09-16T08:01:14.235Z,61.88
2018-09-16T08:02:14.254Z,61.88
2018-09-16T08:03:14.208Z,61.88
2018-09-16T08:04:14.188Z,67.50
2018-09-16T08:05:14.171Z,67.50
2018-09-16T08:06:14.245Z,67.50
2018-09-16T08:07:14.140Z,61.88
2018-09-16T08:08:14.138Z,67.50
2018-09-16T08:09:14.108Z,67.50
2018-09-16T08:10:14.091Z,67.50
2018-09-16T08:11:14.077Z,73.13
2018-09-16T08:12:14.062Z,73.13
2018-09-16T08:13:14.065Z,84.38
2018-09-16T08:14:14.046Z,84.38
2018-09-16T08:15:14.010Z,78.75
2018-09-16T08:16:13.997Z,78.75
2018-09-16T08:17:13.984Z,78.75
2018-09-16T08:18:13.962Z,78.75
2018-09-16T08:19:13.966Z,78.75
2018-09-16T08:20:13.933Z,73.13
2018-09-16T08:21:13.927Z,73.13
2018-09-16T08:22:13.900Z,73.13
2018-09-16T08:23:13.886Z,73.13
2018-09-16T08:24:13.886Z,73.13
2018-09-16T08:25:13.868Z,78.75
2018-09-16T08:26:13.838Z,78.75
2018-09-16T08:27:13.822Z,78.75
2018-09-16T08:28:13.810Z,73.13
2018-09-16T08:29:13.796Z,73.13
2018-09-16T08:30:13.775Z,78.75
2018-09-16T08:31:13.778Z,78.75
2018-09-16T08:32:13.743Z,78.75
2018-09-16T08:33:13.731Z,78.75
2018-09-16T08:34:13.717Z,73.13
2018-09-16T08:35:13.716Z,78.75
2018-09-16T08:36:13.683Z,78.75
2018-09-16T08:37:13.668Z,84.38
2018-09-16T08:38:13.651Z,84.38
2018-09-16T08:39:13.664Z,90.00
2018-09-16T08:40:13.622Z,95.63
2018-09-16T08:41:13.619Z,95.63
2018-09-16T08:42:13.589Z,95.63
2018-09-16T08:43:13.579Z,95.63
2018-09-16T08:44:13.575Z,101.25
2018-09-16T08:45:13.545Z,106.88
2018-09-16T08:46:13.530Z,106.88
2018-09-16T08:47:13.523Z,112.50
2018-09-16T08:48:13.503Z,112.50
2018-09-16T08:49:13.500Z,112.50
2018-09-16T08:50:13.468Z,129.38
2018-09-16T08:51:13.456Z,140.63
2018-09-16T08:52:13.514Z,241.88
2018-09-16T08:53:13.429Z,900.00
2018-09-16T08:54:13.432Z,905.63
2018-09-16T08:55:13.392Z,1057.50
2018-09-16T08:56:13.378Z,1102.50
2018-09-16T08:57:13.388Z,1147.50
2018-09-16T08:58:13.411Z,1209.38
2018-09-16T08:59:13.333Z,1198.13
2018-09-16T09:00:13.324Z,1254.38
2018-09-16T09:01:13.318Z,1305.00
2018-09-16T09:02:13.311Z,1366.88
2018-09-16T09:03:13.296Z,1400.63
2018-09-16T09:04:13.276Z,1383.75
2018-09-16T09:05:13.252Z,1361.25
2018-09-16T09:06:13.243Z,1378.13
2018-09-16T09:07:13.219Z,1051.88
2018-09-16T09:08:13.223Z,1428.75
2018-09-16T09:09:13.197Z,1434.38
2018-09-16T09:10:13.178Z,1299.38
2018-09-16T09:11:13.187Z,1310.63
2018-09-16T09:12:13.175Z,1350.00
2018-09-16T09:13:13.274Z,1198.13
2018-09-16T09:14:13.152Z,1338.75
2018-09-16T09:15:13.133Z,1366.88
2018-09-16T09:16:13.120Z,1327.50
2018-09-16T09:17:13.094Z,1260.00
2018-09-16T09:18:13.081Z,973.13
2018-09-16T09:19:13.075Z,922.50
2018-09-16T09:20:13.059Z,1108.13
2018-09-16T09:21:13.077Z,1310.63
2018-09-16T09:22:13.036Z,1372.50
2018-09-16T09:23:13.054Z,1248.75
2018-09-16T09:24:13.014Z,1057.50
2018-09-16T09:25:13.025Z,1344.38
2018-09-16T09:26:12.997Z,1254.38
2018-09-16T09:27:12.981Z,1355.63
2018-09-16T09:28:12.975Z,1220.63
2018-09-16T09:29:12.968Z,1530.00
2018-09-16T09:30:12.956Z,1558.13
2018-09-16T09:31:12.963Z,1614.38
2018-09-16T09:32:12.934Z,1597.50
2018-09-16T09:33:12.942Z,1198.13
2018-09-16T09:34:12.917Z,1260.00
2018-09-16T09:35:12.916Z,1113.75
2018-09-16T09:36:12.909Z,1344.38
2018-09-16T09:37:12.891Z,1659.38
2018-09-16T09:38:12.878Z,1530.00
2018-09-16T09:39:12.878Z,1524.38
2018-09-16T09:40:12.861Z,1659.38
2018-09-16T09:41:12.865Z,1181.25
2018-09-16T09:42:12.889Z,1091.25
2018-09-16T09:43:12.839Z,1631.25
2018-09-16T09:44:12.830Z,1665.00
2018-09-16T09:45:12.826Z,1715.63
2018-09-16T09:46:12.817Z,1777.50
2018-09-16T09:47:12.821Z,1749.38
2018-09-16T09:48:12.816Z,1777.50
2018-09-16T09:49:12.792Z,1816.88
2018-09-16T09:50:12.781Z,1631.25
2018-09-16T09:51:12.775Z,1608.75
2018-09-16T09:52:12.801Z,1473.75
2018-09-16T09:53:13.066Z,1642.50
2018-09-16T09:54:12.756Z,1546.88
2018-09-16T09:55:12.745Z,1681.88
2018-09-16T09:56:12.750Z,1552.50
2018-09-16T09:57:12.749Z,1586.25
2018-09-16T09:58:12.727Z,1411.88
2018-09-16T09:59:12.794Z,1248.75
2018-09-16T10:00:12.711Z,1507.50
2018-09-16T10:01:12.705Z,1552.50
2018-09-16T10:02:12.701Z,1513.13
2018-09-16T10:03:12.711Z,1451.25
2018-09-16T10:04:12.709Z,1591.88
2018-09-16T10:05:12.680Z,1597.50
2018-09-16T10:06:12.782Z,1620.00
2018-09-16T10:07:12.667Z,1636.88
2018-09-16T10:08:12.662Z,1603.13
2018-09-16T10:09:12.671Z,1580.63
2018-09-16T10:10:12.645Z,1518.75
2018-09-16T10:11:12.638Z,1507.50
2018-09-16T10:12:12.637Z,1552.50
2018-09-16T10:13:12.650Z,1473.75
2018-09-16T10:14:12.687Z,1327.50
2018-09-16T10:15:12.646Z,1321.88
2018-09-16T10:16:12.608Z,1490.63
2018-09-16T10:17:12.611Z,1237.50
2018-09-16T10:18:12.605Z,1029.38
2018-09-16T10:19:12.597Z,1338.75
2018-09-16T10:20:12.607Z,1513.13
2018-09-16T10:21:12.586Z,1462.50
2018-09-16T10:22:12.575Z,1451.25
2018-09-16T10:23:12.576Z,1383.75
2018-09-16T10:24:12.586Z,1378.13
2018-09-16T10:25:12.575Z,1490.63
2018-09-16T10:26:12.582Z,1535.63
2018-09-16T10:27:12.552Z,1631.25
2018-09-16T10:28:12.548Z,1428.75
2018-09-16T10:29:12.541Z,1485.00
2018-09-16T10:30:12.554Z,1636.88
2018-09-16T10:31:12.534Z,1665.00
2018-09-16T10:32:12.528Z,1743.75
2018-09-16T10:33:12.524Z,1383.75
2018-09-16T10:34:12.512Z,1575.00
2018-09-16T10:35:12.513Z,1085.63
2018-09-16T10:36:12.524Z,961.88
2018-09-16T10:37:12.501Z,1501.88
2018-09-16T10:38:12.495Z,1456.88
2018-09-16T10:39:12.494Z,1040.63
2018-09-16T10:40:12.507Z,1310.63
2018-09-16T10:41:12.500Z,1096.88
2018-09-16T10:42:12.479Z,1546.88
2018-09-16T10:43:12.476Z,1563.75
2018-09-16T10:44:12.465Z,1366.88
2018-09-16T10:45:12.460Z,1378.13
2018-09-16T10:46:12.472Z,1411.88
2018-09-16T10:47:12.450Z,1170.00
2018-09-16T10:48:12.470Z,1243.13
2018-09-16T10:49:12.440Z,843.75
2018-09-16T10:50:12.437Z,945.00
2018-09-16T10:51:12.446Z,1209.38
2018-09-16T10:52:12.427Z,658.13
2018-09-16T10:53:12.421Z,540.00
2018-09-16T10:54:12.491Z,714.38
2018-09-16T10:55:12.412Z,590.63
2018-09-16T10:56:12.427Z,798.75
2018-09-16T10:57:12.405Z,691.88
2018-09-16T10:58:12.415Z,725.63
2018-09-16T10:59:12.390Z,939.38
2018-09-16T11:00:12.383Z,1006.88
2018-09-16T11:01:12.376Z,1018.13
2018-09-16T11:02:12.375Z,1023.75
2018-09-16T11:03:12.386Z,798.75
2018-09-16T11:04:12.361Z,686.25
2018-09-16T11:05:12.357Z,1085.63
2018-09-16T11:06:12.348Z,1063.13
2018-09-16T11:07:12.351Z,1113.75
2018-09-16T11:08:12.383Z,1051.88
2018-09-16T11:09:12.326Z,1153.13
2018-09-16T11:10:12.322Z,1040.63
2018-09-16T11:11:12.319Z,1350.00
2018-09-16T11:12:12.329Z,1310.63
2018-09-16T11:13:12.307Z,613.13
2018-09-16T11:14:12.300Z,1141.88
2018-09-16T11:15:12.293Z,888.75
2018-09-16T11:16:12.287Z,967.50
2018-09-16T11:17:12.281Z,815.63
2018-09-16T11:18:12.296Z,810.00
2018-09-16T11:19:12.272Z,911.25
2018-09-16T11:20:12.264Z,832.50
2018-09-16T11:21:12.257Z,928.13
2018-09-16T11:22:12.305Z,888.75
2018-09-16T11:23:12.266Z,821.25
2018-09-16T11:24:12.242Z,883.13
2018-09-16T11:25:12.230Z,1170.00
2018-09-16T11:26:12.232Z,1265.63
2018-09-16T11:27:12.222Z,1355.63
2018-09-16T11:28:12.284Z,1361.25
2018-09-16T11:29:12.223Z,742.50
2018-09-16T11:30:12.237Z,1535.63
2018-09-16T11:31:12.204Z,877.50
2018-09-16T11:32:12.191Z,1344.38
2018-09-16T11:33:12.188Z,573.75
2018-09-16T11:34:12.203Z,1147.50
2018-09-16T11:35:12.172Z,905.63
2018-09-16T11:36:12.163Z,613.13
2018-09-16T11:37:12.156Z,871.88
2018-09-16T11:38:12.154Z,804.38
2018-09-16T11:39:12.148Z,630.00
2018-09-16T11:40:12.162Z,883.13
2018-09-16T11:41:12.728Z,804.38
2018-09-16T11:42:12.139Z,472.50
2018-09-16T11:43:12.124Z,551.25
2018-09-16T11:44:12.141Z,540.00
2018-09-16T11:45:12.116Z,630.00
2018-09-16T11:46:12.107Z,607.50
2018-09-16T11:47:12.105Z,618.75
2018-09-16T11:48:12.102Z,568.13
2018-09-16T11:49:12.087Z,663.75
2018-09-16T11:50:12.105Z,961.88
2018-09-16T11:51:12.080Z,798.75
2018-09-16T11:52:12.074Z,697.50
2018-09-16T11:53:12.067Z,990.00
2018-09-16T11:54:12.067Z,534.38
2018-09-16T11:55:12.073Z,551.25
2018-09-16T11:56:12.051Z,601.88
2018-09-16T11:57:12.339Z,596.25
2018-09-16T11:58:12.042Z,787.50
2018-09-16T11:59:12.039Z,1080.00
2018-09-16T12:00:12.051Z,1209.38
2018-09-16T12:01:12.025Z,798.75
2018-09-16T12:02:12.024Z,646.88
2018-09-16T12:03:12.019Z,686.25
2018-09-16T12:04:12.012Z,1546.88
2018-09-16T12:05:12.065Z,680.63
2018-09-16T12:06:12.019Z,1732.50
2018-09-16T12:07:11.994Z,1355.63
2018-09-16T12:08:12.078Z,1856.25
2018-09-16T12:09:11.990Z,1856.25
2018-09-16T12:10:11.997Z,1878.75
2018-09-16T12:11:11.991Z,1777.50
2018-09-16T12:12:11.973Z,545.63
2018-09-16T12:13:11.969Z,686.25
2018-09-16T12:14:11.969Z,523.13
2018-09-16T12:15:11.966Z,1586.25
2018-09-16T12:16:12.020Z,618.75
2018-09-16T12:17:11.955Z,478.13
2018-09-16T12:18:11.946Z,1541.25
2018-09-16T12:19:11.943Z,1411.88
2018-09-16T12:20:11.958Z,1507.50
2018-09-16T12:21:11.953Z,1575.00
2018-09-16T12:22:11.949Z,511.88
2018-09-16T12:23:11.926Z,601.88
2018-09-16T12:24:11.923Z,1783.13
2018-09-16T12:25:11.916Z,1839.38
2018-09-16T12:26:11.910Z,1271.25
2018-09-16T12:27:11.920Z,1788.75
2018-09-16T12:28:11.897Z,1912.50
2018-09-16T12:29:11.900Z,489.38
2018-09-16T12:30:11.888Z,461.25
2018-09-16T12:31:11.896Z,1366.88
2018-09-16T12:32:11.882Z,759.38
2018-09-16T12:33:11.892Z,410.63
2018-09-16T12:34:11.866Z,376.88
2018-09-16T12:35:11.865Z,365.63
2018-09-16T12:36:11.860Z,388.13
2018-09-16T12:37:11.857Z,388.13
2018-09-16T12:38:11.861Z,326.25
2018-09-16T12:39:11.842Z,354.38
2018-09-16T12:40:11.833Z,343.13
2018-09-16T12:41:11.830Z,320.63
2018-09-16T12:42:11.825Z,331.88
2018-09-16T12:43:11.835Z,343.13
2018-09-16T12:44:11.816Z,360.00
2018-09-16T12:45:11.826Z,388.13
2018-09-16T12:46:11.805Z,410.63
2018-09-16T12:47:11.817Z,506.25
2018-09-16T12:48:11.793Z,461.25
2018-09-16T12:49:11.801Z,556.88
2018-09-16T12:50:11.784Z,528.75
2018-09-16T12:51:11.778Z,483.75
2018-09-16T12:52:11.771Z,506.25
2018-09-16T12:53:11.784Z,450.00
2018-09-16T12:54:11.772Z,365.63
2018-09-16T12:55:11.755Z,360.00